Aurora Springs, Missouri
Current Conditions -  °F | °C
As of 1:15 AM on Saturday 25 Oct 2014 (Local Time) from KAIZ Reporting Station
Clear Clear  
Wind Chill: 61°   Ceiling: Unl
Heat Index: 61°   Visibility: 10mi
Dew Point: 57°   Wind: 6mph
Humidity: 88%   Direction: 230°SW
Pressure: 30.03"   Gusts: NA
Location:  38.333°N, 92.5524°W
Report Text: KAIZ 250615Z AUTO 23005KT 10SM CLR 16/14 A3003 RMK AO1
Loading
Personal Weather Stations






























Interactive Weather Map New forecast layout! Learn more

10-Day Weather Forecast

Advertisements
Track Severe Weather on mobile